sensor_id;sensor_type;location;lat;lon;timestamp;P1;durP1;ratioP1;P2;durP2;ratioP2
11588;SDS011;5850;51.360;12.362;2023-03-01T00:01:46;24.30;;;16.10;;
11588;SDS011;5850;51.360;12.362;2023-03-01T00:04:14;23.33;;;16.27;;
11588;SDS011;5850;51.360;12.362;2023-03-01T00:06:43;21.23;;;15.70;;
11588;SDS011;5850;51.360;12.362;2023-03-01T00:09:12;24.73;;;17.43;;
11588;SDS011;5850;51.360;12.362;2023-03-01T00:11:42;23.20;;;16.03;;
11588;SDS011;5850;51.360;12.362;2023-03-01T00:14:11;20.43;;;15.83;;
11588;SDS011;5850;51.360;12.362;2023-03-01T00:16:42;22.63;;;16.07;;
11588;SDS011;5850;51.360;12.362;2023-03-01T00:19:13;24.00;;;16.10;;
11588;SDS011;5850;51.360;12.362;2023-03-01T00:21:44;21.83;;;16.47;;
11588;SDS011;5850;51.360;12.362;2023-03-01T00:24:13;22.77;;;16.13;;
11588;SDS011;5850;51.360;12.362;2023-03-01T00:26:41;22.33;;;16.20;;
11588;SDS011;5850;51.360;12.362;2023-03-01T00:29:10;22.27;;;16.37;;
11588;SDS011;5850;51.360;12.362;2023-03-01T00:31:39;23.63;;;15.80;;
11588;SDS011;5850;51.360;12.362;2023-03-01T00:34:08;22.97;;;15.97;;
11588;SDS011;5850;51.360;12.362;2023-03-01T00:36:37;20.30;;;16.07;;
11588;SDS011;5850;51.360;12.362;2023-03-01T00:39:07;22.40;;;16.57;;
11588;SDS011;5850;51.360;12.362;2023-03-01T00:41:40;23.47;;;15.67;;
11588;SDS011;5850;51.360;12.362;2023-03-01T00:44:09;21.27;;;15.50;;
11588;SDS011;5850;51.360;12.362;2023-03-01T00:46:38;23.83;;;15.13;;
11588;SDS011;5850;51.360;12.362;2023-03-01T00:49:07;20.40;;;15.27;;
11588;SDS011;5850;51.360;12.362;2023-03-01T00:51:35;19.33;;;14.23;;
11588;SDS011;5850;51.360;12.362;2023-03-01T00:54:05;21.47;;;14.63;;
11588;SDS011;5850;51.360;12.362;2023-03-01T00:56:33;20.60;;;14.23;;
11588;SDS011;5850;51.360;12.362;2023-03-01T00:59:02;22.90;;;15.00;;
11588;SDS011;5850;51.360;12.362;2023-03-01T01:01:30;17.30;;;14.23;;
11588;SDS011;5850;51.360;12.362;2023-03-01T01:04:04;19.93;;;14.23;;
11588;SDS011;5850;51.360;12.362;2023-03-01T01:06:43;21.17;;;14.57;;
11588;SDS011;5850;51.360;12.362;2023-03-01T01:09:14;19.93;;;14.63;;
11588;SDS011;5850;51.360;12.362;2023-03-01T01:11:48;18.97;;;14.10;;
11588;SDS011;5850;51.360;12.362;2023-03-01T01:14:18;17.70;;;14.03;;
11588;SDS011;5850;51.360;12.362;2023-03-01T01:16:47;21.47;;;14.87;;
11588;SDS011;5850;51.360;12.362;2023-03-01T01:19:15;19.47;;;14.03;;
11588;SDS011;5850;51.360;12.362;2023-03-01T01:21:44;25.50;;;14.43;;
11588;SDS011;5850;51.360;12.362;2023-03-01T01:24:14;22.17;;;15.17;;
11588;SDS011;5850;51.360;12.362;2023-03-01T01:26:43;19.77;;;13.80;;
11588;SDS011;5850;51.360;12.362;2023-03-01T01:29:12;21.97;;;15.07;;
11588;SDS011;5850;51.360;12.362;2023-03-01T01:31:41;21.10;;;14.63;;
11588;SDS011;5850;51.360;12.362;2023-03-01T01:34:15;19.03;;;14.50;;
11588;SDS011;5850;51.360;12.362;2023-03-01T01:36:49;19.20;;;14.10;;
11588;SDS011;5850;51.360;12.362;2023-03-01T01:39:20;18.47;;;13.90;;
11588;SDS011;5850;51.360;12.362;2023-03-01T01:41:50;23.33;;;14.67;;
11588;SDS011;5850;51.360;12.362;2023-03-01T01:44:20;21.03;;;14.70;;
11588;SDS011;5850;51.360;12.362;2023-03-01T01:47:00;20.53;;;13.47;;
11588;SDS011;5850;51.360;12.362;2023-03-01T01:49:37;18.60;;;13.73;;
11588;SDS011;5850;51.360;12.362;2023-03-01T01:52:12;21.83;;;14.13;;
11588;SDS011;5850;51.360;12.362;2023-03-01T01:55:17;17.17;;;13.57;;
11588;SDS011;5850;51.360;12.362;2023-03-01T01:57:51;20.43;;;12.63;;
11588;SDS011;5850;51.360;12.362;2023-03-01T02:00:24;17.53;;;12.97;;
11588;SDS011;5850;51.360;12.362;2023-03-01T02:02:56;18.80;;;12.10;;
11588;SDS011;5850;51.360;12.362;2023-03-01T02:08:33;16.90;;;11.87;;
11588;SDS011;5850;51.360;12.362;2023-03-01T02:11:05;17.63;;;12.90;;
11588;SDS011;5850;51.360;12.362;2023-03-01T02:13:33;17.27;;;12.33;;
11588;SDS011;5850;51.360;12.362;2023-03-01T02:16:03;18.60;;;12.90;;
11588;SDS011;5850;51.360;12.362;2023-03-01T02:18:36;17.00;;;11.87;;
11588;SDS011;5850;51.360;12.362;2023-03-01T02:24:33;15.43;;;11.97;;
11588;SDS011;5850;51.360;12.362;2023-03-01T02:27:13;17.90;;;12.93;;
11588;SDS011;5850;51.360;12.362;2023-03-01T02:29:42;18.10;;;12.53;;
11588;SDS011;5850;51.360;12.362;2023-03-01T02:32:11;15.50;;;11.93;;
11588;SDS011;5850;51.360;12.362;2023-03-01T02:34:40;16.60;;;11.67;;
11588;SDS011;5850;51.360;12.362;2023-03-01T02:37:12;15.73;;;12.17;;
11588;SDS011;5850;51.360;12.362;2023-03-01T02:39:47;15.33;;;11.27;;
11588;SDS011;5850;51.360;12.362;2023-03-01T02:42:23;16.37;;;12.10;;
11588;SDS011;5850;51.360;12.362;2023-03-01T02:44:58;14.70;;;11.93;;
11588;SDS011;5850;51.360;12.362;2023-03-01T02:47:27;14.47;;;11.77;;
11588;SDS011;5850;51.360;12.362;2023-03-01T02:49:55;18.63;;;12.10;;
11588;SDS011;5850;51.360;12.362;2023-03-01T02:52:34;14.93;;;11.13;;
11588;SDS011;5850;51.360;12.362;2023-03-01T02:55:17;16.80;;;11.53;;
11588;SDS011;5850;51.360;12.362;2023-03-01T02:57:46;14.73;;;10.30;;
11588;SDS011;5850;51.360;12.362;2023-03-01T03:00:21;19.57;;;11.83;;
11588;SDS011;5850;51.360;12.362;2023-03-01T03:02:54;15.00;;;10.90;;
11588;SDS011;5850;51.360;12.362;2023-03-01T03:05:26;16.57;;;10.27;;
11588;SDS011;5850;51.360;12.362;2023-03-01T03:07:57;16.00;;;10.63;;
11588;SDS011;5850;51.360;12.362;2023-03-01T03:10:32;13.60;;;10.37;;
11588;SDS011;5850;51.360;12.362;2023-03-01T03:13:08;16.23;;;11.50;;
11588;SDS011;5850;51.360;12.362;2023-03-01T03:15:39;15.90;;;11.40;;
11588;SDS011;5850;51.360;12.362;2023-03-01T03:18:11;14.57;;;11.10;;
11588;SDS011;5850;51.360;12.362;2023-03-01T03:20:43;14.50;;;9.93;;
11588;SDS011;5850;51.360;12.362;2023-03-01T03:23:12;15.33;;;10.13;;
11588;SDS011;5850;51.360;12.362;2023-03-01T03:25:41;14.93;;;10.57;;
11588;SDS011;5850;51.360;12.362;2023-03-01T03:28:09;14.13;;;10.60;;
11588;SDS011;5850;51.360;12.362;2023-03-01T03:30:38;15.23;;;10.53;;
11588;SDS011;5850;51.360;12.362;2023-03-01T03:33:08;15.17;;;11.03;;
11588;SDS011;5850;51.360;12.362;2023-03-01T03:35:40;14.90;;;11.00;;
11588;SDS011;5850;51.360;12.362;2023-03-01T03:38:12;16.10;;;11.47;;
11588;SDS011;5850;51.360;12.362;2023-03-01T03:40:45;15.10;;;10.53;;
11588;SDS011;5850;51.360;12.362;2023-03-01T03:45:46;16.97;;;11.67;;
11588;SDS011;5850;51.360;12.362;2023-03-01T03:48:16;21.13;;;11.80;;
11588;SDS011;5850;51.360;12.362;2023-03-01T03:50:52;17.87;;;11.37;;
11588;SDS011;5850;51.360;12.362;2023-03-01T03:53:24;17.53;;;11.70;;
11588;SDS011;5850;51.360;12.362;2023-03-01T03:55:54;15.40;;;10.77;;
11588;SDS011;5850;51.360;12.362;2023-03-01T03:58:24;16.23;;;10.80;;
11588;SDS011;5850;51.360;12.362;2023-03-01T04:00:54;18.13;;;11.60;;
11588;SDS011;5850;51.360;12.362;2023-03-01T04:03:24;15.40;;;11.30;;
11588;SDS011;5850;51.360;12.362;2023-03-01T04:05:53;15.93;;;12.03;;
11588;SDS011;5850;51.360;12.362;2023-03-01T04:08:24;16.37;;;11.13;;
11588;SDS011;5850;51.360;12.362;2023-03-01T04:10:56;16.07;;;11.40;;
11588;SDS011;5850;51.360;12.362;2023-03-01T04:13:47;14.43;;;11.20;;
11588;SDS011;5850;51.360;12.362;2023-03-01T04:16:16;19.57;;;12.93;;
11588;SDS011;5850;51.360;12.362;2023-03-01T04:18:46;16.90;;;11.57;;
11588;SDS011;5850;51.360;12.362;2023-03-01T04:21:14;18.37;;;12.00;;
11588;SDS011;5850;51.360;12.362;2023-03-01T04:23:42;19.47;;;12.03;;
11588;SDS011;5850;51.360;12.362;2023-03-01T04:26:11;18.47;;;12.17;;
11588;SDS011;5850;51.360;12.362;2023-03-01T04:28:40;15.37;;;11.33;;
11588;SDS011;5850;51.360;12.362;2023-03-01T04:31:12;18.10;;;12.23;;
11588;SDS011;5850;51.360;12.362;2023-03-01T04:33:48;16.07;;;11.20;;
11588;SDS011;5850;51.360;12.362;2023-03-01T04:36:26;15.67;;;11.80;;
11588;SDS011;5850;51.360;12.362;2023-03-01T04:38:57;14.17;;;10.90;;
11588;SDS011;5850;51.360;12.362;2023-03-01T04:41:25;14.90;;;11.13;;
11588;SDS011;5850;51.360;12.362;2023-03-01T04:43:54;16.03;;;12.43;;
11588;SDS011;5850;51.360;12.362;2023-03-01T04:46:22;16.80;;;12.27;;
11588;SDS011;5850;51.360;12.362;2023-03-01T04:48:51;16.13;;;11.93;;
11588;SDS011;5850;51.360;12.362;2023-03-01T04:51:19;18.67;;;12.23;;
11588;SDS011;5850;51.360;12.362;2023-03-01T04:53:48;16.33;;;12.17;;
11588;SDS011;5850;51.360;12.362;2023-03-01T04:56:17;21.07;;;12.57;;
11588;SDS011;5850;51.360;12.362;2023-03-01T04:58:46;14.93;;;11.37;;
11588;SDS011;5850;51.360;12.362;2023-03-01T05:01:15;16.60;;;12.03;;
11588;SDS011;5850;51.360;12.362;2023-03-01T05:03:47;18.10;;;12.60;;
11588;SDS011;5850;51.360;12.362;2023-03-01T05:06:18;18.67;;;11.83;;
11588;SDS011;5850;51.360;12.362;2023-03-01T05:08:47;17.30;;;12.07;;
11588;SDS011;5850;51.360;12.362;2023-03-01T05:11:16;14.23;;;11.27;;
11588;SDS011;5850;51.360;12.362;2023-03-01T05:13:44;15.87;;;11.83;;
11588;SDS011;5850;51.360;12.362;2023-03-01T05:16:13;17.73;;;12.53;;
11588;SDS011;5850;51.360;12.362;2023-03-01T05:18:44;17.70;;;11.87;;
11588;SDS011;5850;51.360;12.362;2023-03-01T05:21:13;18.53;;;12.40;;
11588;SDS011;5850;51.360;12.362;2023-03-01T05:23:43;17.53;;;11.90;;
11588;SDS011;5850;51.360;12.362;2023-03-01T05:26:13;17.67;;;11.80;;
11588;SDS011;5850;51.360;12.362;2023-03-01T05:28:53;18.33;;;12.53;;
11588;SDS011;5850;51.360;12.362;2023-03-01T05:31:25;21.13;;;11.87;;
11588;SDS011;5850;51.360;12.362;2023-03-01T05:33:54;17.47;;;12.10;;
11588;SDS011;5850;51.360;12.362;2023-03-01T05:36:22;18.77;;;12.83;;
11588;SDS011;5850;51.360;12.362;2023-03-01T05:38:51;23.37;;;13.30;;
11588;SDS011;5850;51.360;12.362;2023-03-01T05:41:20;17.50;;;12.67;;
11588;SDS011;5850;51.360;12.362;2023-03-01T05:43:48;17.30;;;13.37;;
11588;SDS011;5850;51.360;12.362;2023-03-01T05:46:17;23.60;;;13.53;;
11588;SDS011;5850;51.360;12.362;2023-03-01T05:48:45;20.63;;;13.30;;
11588;SDS011;5850;51.360;12.362;2023-03-01T05:51:14;18.43;;;13.33;;
11588;SDS011;5850;51.360;12.362;2023-03-01T05:53:43;16.57;;;12.40;;
11588;SDS011;5850;51.360;12.362;2023-03-01T05:56:12;17.67;;;13.40;;
11588;SDS011;5850;51.360;12.362;2023-03-01T05:58:40;16.90;;;12.33;;
11588;SDS011;5850;51.360;12.362;2023-03-01T06:01:12;18.73;;;12.10;;
11588;SDS011;5850;51.360;12.362;2023-03-01T06:03:41;18.30;;;13.30;;
11588;SDS011;5850;51.360;12.362;2023-03-01T06:06:10;18.87;;;13.43;;
11588;SDS011;5850;51.360;12.362;2023-03-01T06:08:38;19.37;;;13.73;;
11588;SDS011;5850;51.360;12.362;2023-03-01T06:11:07;16.77;;;13.13;;
11588;SDS011;5850;51.360;12.362;2023-03-01T06:13:35;21.13;;;13.47;;
11588;SDS011;5850;51.360;12.362;2023-03-01T06:16:05;22.23;;;13.67;;
11588;SDS011;5850;51.360;12.362;2023-03-01T06:18:34;22.83;;;13.30;;
11588;SDS011;5850;51.360;12.362;2023-03-01T06:21:03;20.53;;;13.37;;
11588;SDS011;5850;51.360;12.362;2023-03-01T06:23:35;19.43;;;13.57;;
11588;SDS011;5850;51.360;12.362;2023-03-01T06:26:07;18.03;;;13.10;;
11588;SDS011;5850;51.360;12.362;2023-03-01T06:28:36;19.03;;;13.83;;
11588;SDS011;5850;51.360;12.362;2023-03-01T06:31:05;21.03;;;13.83;;
11588;SDS011;5850;51.360;12.362;2023-03-01T06:33:35;18.23;;;13.23;;
11588;SDS011;5850;51.360;12.362;2023-03-01T06:36:04;22.27;;;13.17;;
11588;SDS011;5850;51.360;12.362;2023-03-01T06:38:33;18.37;;;12.47;;
11588;SDS011;5850;51.360;12.362;2023-03-01T06:41:03;16.83;;;13.27;;
11588;SDS011;5850;51.360;12.362;2023-03-01T06:43:32;18.60;;;13.53;;
11588;SDS011;5850;51.360;12.362;2023-03-01T06:46:05;20.00;;;13.43;;
11588;SDS011;5850;51.360;12.362;2023-03-01T06:48:35;20.17;;;13.40;;
11588;SDS011;5850;51.360;12.362;2023-03-01T06:51:03;19.27;;;13.03;;
11588;SDS011;5850;51.360;12.362;2023-03-01T06:53:32;17.90;;;12.20;;
11588;SDS011;5850;51.360;12.362;2023-03-01T06:56:01;20.83;;;14.23;;
11588;SDS011;5850;51.360;12.362;2023-03-01T06:58:30;19.27;;;13.33;;
11588;SDS011;5850;51.360;12.362;2023-03-01T07:00:58;23.87;;;14.30;;
11588;SDS011;5850;51.360;12.362;2023-03-01T07:03:27;23.63;;;12.40;;
11588;SDS011;5850;51.360;12.362;2023-03-01T07:05:55;15.77;;;12.70;;
11588;SDS011;5850;51.360;12.362;2023-03-01T07:08:23;21.17;;;13.77;;
11588;SDS011;5850;51.360;12.362;2023-03-01T07:10:56;18.53;;;12.30;;
11588;SDS011;5850;51.360;12.362;2023-03-01T07:13:25;19.83;;;13.10;;
11588;SDS011;5850;51.360;12.362;2023-03-01T07:15:54;21.27;;;13.70;;
11588;SDS011;5850;51.360;12.362;2023-03-01T07:18:23;24.70;;;13.27;;
11588;SDS011;5850;51.360;12.362;2023-03-01T07:20:52;20.67;;;12.60;;
11588;SDS011;5850;51.360;12.362;2023-03-01T07:23:23;16.50;;;11.40;;
11588;SDS011;5850;51.360;12.362;2023-03-01T07:25:52;17.27;;;12.27;;
11588;SDS011;5850;51.360;12.362;2023-03-01T07:28:24;18.60;;;12.03;;
11588;SDS011;5850;51.360;12.362;2023-03-01T07:30:52;20.17;;;13.00;;
11588;SDS011;5850;51.360;12.362;2023-03-01T07:33:21;20.00;;;13.03;;
11588;SDS011;5850;51.360;12.362;2023-03-01T07:35:55;21.13;;;13.30;;
11588;SDS011;5850;51.360;12.362;2023-03-01T07:38:28;20.63;;;12.70;;
11588;SDS011;5850;51.360;12.362;2023-03-01T07:40:57;19.90;;;13.57;;
11588;SDS011;5850;51.360;12.362;2023-03-01T07:43:31;21.83;;;13.00;;
11588;SDS011;5850;51.360;12.362;2023-03-01T07:46:01;19.63;;;13.23;;
11588;SDS011;5850;51.360;12.362;2023-03-01T07:48:30;18.83;;;13.33;;
11588;SDS011;5850;51.360;12.362;2023-03-01T07:51:00;22.43;;;13.37;;
11588;SDS011;5850;51.360;12.362;2023-03-01T07:53:30;23.87;;;14.50;;
11588;SDS011;5850;51.360;12.362;2023-03-01T07:56:03;19.90;;;13.73;;
11588;SDS011;5850;51.360;12.362;2023-03-01T07:58:38;22.27;;;14.13;;
11588;SDS011;5850;51.360;12.362;2023-03-01T08:01:12;21.10;;;14.00;;
11588;SDS011;5850;51.360;12.362;2023-03-01T08:03:43;21.77;;;14.37;;
11588;SDS011;5850;51.360;12.362;2023-03-01T08:06:12;20.47;;;13.63;;
11588;SDS011;5850;51.360;12.362;2023-03-01T08:08:42;24.67;;;15.10;;
11588;SDS011;5850;51.360;12.362;2023-03-01T08:11:12;22.13;;;14.57;;
11588;SDS011;5850;51.360;12.362;2023-03-01T08:13:42;22.43;;;14.43;;
11588;SDS011;5850;51.360;12.362;2023-03-01T08:16:12;24.27;;;15.17;;
11588;SDS011;5850;51.360;12.362;2023-03-01T08:18:43;27.20;;;14.87;;
11588;SDS011;5850;51.360;12.362;2023-03-01T08:21:12;21.77;;;14.43;;
11588;SDS011;5850;51.360;12.362;2023-03-01T08:23:43;21.20;;;13.73;;
11588;SDS011;5850;51.360;12.362;2023-03-01T08:26:17;23.63;;;13.83;;
11588;SDS011;5850;51.360;12.362;2023-03-01T08:28:48;23.00;;;15.30;;
11588;SDS011;5850;51.360;12.362;2023-03-01T08:31:24;28.43;;;16.93;;
11588;SDS011;5850;51.360;12.362;2023-03-01T08:33:59;28.07;;;16.50;;
11588;SDS011;5850;51.360;12.362;2023-03-01T08:36:33;27.43;;;17.60;;
11588;SDS011;5850;51.360;12.362;2023-03-01T08:39:06;36.00;;;22.00;;
11588;SDS011;5850;51.360;12.362;2023-03-01T08:41:37;27.93;;;16.40;;
11588;SDS011;5850;51.360;12.362;2023-03-01T08:44:06;28.20;;;18.90;;
11588;SDS011;5850;51.360;12.362;2023-03-01T08:46:38;31.47;;;19.90;;
11588;SDS011;5850;51.360;12.362;2023-03-01T08:49:11;25.23;;;18.07;;
11588;SDS011;5850;51.360;12.362;2023-03-01T08:51:45;23.10;;;15.93;;
11588;SDS011;5850;51.360;12.362;2023-03-01T08:54:19;22.97;;;15.67;;
11588;SDS011;5850;51.360;12.362;2023-03-01T08:56:49;22.87;;;14.70;;
11588;SDS011;5850;51.360;12.362;2023-03-01T08:59:17;22.40;;;15.33;;
11588;SDS011;5850;51.360;12.362;2023-03-01T09:01:47;24.90;;;14.60;;
11588;SDS011;5850;51.360;12.362;2023-03-01T09:04:16;25.83;;;14.37;;
11588;SDS011;5850;51.360;12.362;2023-03-01T09:06:44;24.97;;;15.37;;
11588;SDS011;5850;51.360;12.362;2023-03-01T09:09:14;20.80;;;14.33;;
11588;SDS011;5850;51.360;12.362;2023-03-01T09:11:44;22.20;;;14.97;;
11588;SDS011;5850;51.360;12.362;2023-03-01T09:14:13;20.80;;;13.73;;
11588;SDS011;5850;51.360;12.362;2023-03-01T09:16:42;24.90;;;14.63;;
11588;SDS011;5850;51.360;12.362;2023-03-01T09:19:11;19.73;;;14.00;;
11588;SDS011;5850;51.360;12.362;2023-03-01T09:21:41;25.03;;;15.23;;
11588;SDS011;5850;51.360;12.362;2023-03-01T09:24:22;25.27;;;14.10;;
11588;SDS011;5850;51.360;12.362;2023-03-01T09:26:54;22.90;;;14.53;;
11588;SDS011;5850;51.360;12.362;2023-03-01T09:29:23;21.80;;;14.87;;
11588;SDS011;5850;51.360;12.362;2023-03-01T09:31:53;23.63;;;15.40;;
11588;SDS011;5850;51.360;12.362;2023-03-01T09:34:22;24.50;;;15.90;;
11588;SDS011;5850;51.360;12.362;2023-03-01T09:36:51;27.03;;;15.97;;
11588;SDS011;5850;51.360;12.362;2023-03-01T09:39:20;24.03;;;15.77;;
11588;SDS011;5850;51.360;12.362;2023-03-01T09:47:04;25.10;;;14.57;;
11588;SDS011;5850;51.360;12.362;2023-03-01T09:55:15;24.27;;;15.27;;
11588;SDS011;5850;51.360;12.362;2023-03-01T09:58:06;30.80;;;15.93;;
11588;SDS011;5850;51.360;12.362;2023-03-01T10:06:36;22.73;;;15.70;;
11588;SDS011;5850;51.360;12.362;2023-03-01T10:09:07;22.93;;;15.07;;
11588;SDS011;5850;51.360;12.362;2023-03-01T10:11:42;24.50;;;15.13;;
11588;SDS011;5850;51.360;12.362;2023-03-01T10:17:12;20.63;;;13.83;;
11588;SDS011;5850;51.360;12.362;2023-03-01T10:20:11;30.13;;;15.30;;
11588;SDS011;5850;51.360;12.362;2023-03-01T10:22:42;23.23;;;13.90;;
11588;SDS011;5850;51.360;12.362;2023-03-01T10:25:17;19.63;;;13.77;;
11588;SDS011;5850;51.360;12.362;2023-03-01T10:28:06;19.70;;;13.13;;
11588;SDS011;5850;51.360;12.362;2023-03-01T10:30:45;20.63;;;14.07;;
11588;SDS011;5850;51.360;12.362;2023-03-01T10:33:18;22.37;;;13.93;;
11588;SDS011;5850;51.360;12.362;2023-03-01T10:36:03;22.77;;;14.63;;
11588;SDS011;5850;51.360;12.362;2023-03-01T10:38:48;23.37;;;14.47;;
11588;SDS011;5850;51.360;12.362;2023-03-01T10:41:21;23.10;;;13.93;;
11588;SDS011;5850;51.360;12.362;2023-03-01T10:43:51;22.40;;;13.40;;
11588;SDS011;5850;51.360;12.362;2023-03-01T10:46:36;19.20;;;13.80;;
11588;SDS011;5850;51.360;12.362;2023-03-01T10:49:07;44.23;;;23.00;;
11588;SDS011;5850;51.360;12.362;2023-03-01T10:51:44;25.27;;;15.77;;
11588;SDS011;5850;51.360;12.362;2023-03-01T10:54:20;34.57;;;20.20;;
11588;SDS011;5850;51.360;12.362;2023-03-01T10:59:29;24.70;;;16.03;;
11588;SDS011;5850;51.360;12.362;2023-03-01T11:07:57;30.27;;;20.13;;
11588;SDS011;5850;51.360;12.362;2023-03-01T11:10:28;21.10;;;14.87;;
11588;SDS011;5850;51.360;12.362;2023-03-01T11:13:08;22.10;;;14.33;;
11588;SDS011;5850;51.360;12.362;2023-03-01T11:16:03;20.47;;;13.97;;
11588;SDS011;5850;51.360;12.362;2023-03-01T11:18:34;21.43;;;14.90;;
11588;SDS011;5850;51.360;12.362;2023-03-01T11:21:13;22.33;;;15.70;;
11588;SDS011;5850;51.360;12.362;2023-03-01T11:23:43;20.20;;;14.83;;
11588;SDS011;5850;51.360;12.362;2023-03-01T11:26:13;24.77;;;15.53;;
11588;SDS011;5850;51.360;12.362;2023-03-01T11:28:44;24.17;;;15.13;;
11588;SDS011;5850;51.360;12.362;2023-03-01T11:31:18;24.67;;;15.97;;
11588;SDS011;5850;51.360;12.362;2023-03-01T11:33:49;25.77;;;16.27;;
11588;SDS011;5850;51.360;12.362;2023-03-01T11:36:56;24.43;;;14.40;;
11588;SDS011;5850;51.360;12.362;2023-03-01T11:39:34;20.40;;;14.27;;
11588;SDS011;5850;51.360;12.362;2023-03-01T11:42:37;24.57;;;15.20;;
11588;SDS011;5850;51.360;12.362;2023-03-01T11:45:22;22.30;;;15.47;;
11588;SDS011;5850;51.360;12.362;2023-03-01T11:47:55;24.73;;;15.53;;
11588;SDS011;5850;51.360;12.362;2023-03-01T11:50:42;21.70;;;14.70;;
11588;SDS011;5850;51.360;12.362;2023-03-01T11:56:02;20.70;;;14.30;;
11588;SDS011;5850;51.360;12.362;2023-03-01T12:26:05;17.77;;;12.07;;
11588;SDS011;5850;51.360;12.362;2023-03-01T12:38:22;23.47;;;15.60;;
11588;SDS011;5850;51.360;12.362;2023-03-01T12:41:02;29.93;;;18.47;;
11588;SDS011;5850;51.360;12.362;2023-03-01T12:43:58;20.83;;;14.23;;
11588;SDS011;5850;51.360;12.362;2023-03-01T12:49:20;16.33;;;12.67;;
11588;SDS011;5850;51.360;12.362;2023-03-01T12:51:57;21.30;;;13.50;;
11588;SDS011;5850;51.360;12.362;2023-03-01T12:54:31;15.03;;;11.33;;
11588;SDS011;5850;51.360;12.362;2023-03-01T12:57:06;19.97;;;12.70;;
11588;SDS011;5850;51.360;12.362;2023-03-01T13:02:41;18.10;;;11.63;;
11588;SDS011;5850;51.360;12.362;2023-03-01T13:05:24;17.43;;;12.07;;
11588;SDS011;5850;51.360;12.362;2023-03-01T13:11:20;21.30;;;13.47;;
11588;SDS011;5850;51.360;12.362;2023-03-01T13:13:50;18.70;;;12.70;;
11588;SDS011;5850;51.360;12.362;2023-03-01T13:16:22;15.83;;;10.77;;
11588;SDS011;5850;51.360;12.362;2023-03-01T13:19:06;17.10;;;11.90;;
11588;SDS011;5850;51.360;12.362;2023-03-01T13:21:45;18.40;;;11.37;;
11588;SDS011;5850;51.360;12.362;2023-03-01T13:29:55;17.13;;;11.37;;
11588;SDS011;5850;51.360;12.362;2023-03-01T13:32:34;16.87;;;11.53;;
11588;SDS011;5850;51.360;12.362;2023-03-01T13:37:42;18.43;;;11.00;;
11588;SDS011;5850;51.360;12.362;2023-03-01T13:42:46;15.33;;;10.23;;
11588;SDS011;5850;51.360;12.362;2023-03-01T13:48:10;18.40;;;10.37;;
11588;SDS011;5850;51.360;12.362;2023-03-01T13:53:41;16.20;;;10.20;;
11588;SDS011;5850;51.360;12.362;2023-03-01T13:56:14;14.90;;;9.83;;
11588;SDS011;5850;51.360;12.362;2023-03-01T13:58:54;14.30;;;8.57;;
11588;SDS011;5850;51.360;12.362;2023-03-01T14:01:32;14.93;;;9.03;;
11588;SDS011;5850;51.360;12.362;2023-03-01T14:04:03;13.43;;;8.87;;
11588;SDS011;5850;51.360;12.362;2023-03-01T14:06:48;11.37;;;8.10;;
11588;SDS011;5850;51.360;12.362;2023-03-01T14:09:23;13.07;;;8.90;;
11588;SDS011;5850;51.360;12.362;2023-03-01T14:14:59;11.03;;;8.33;;
11588;SDS011;5850;51.360;12.362;2023-03-01T14:20:44;21.50;;;13.40;;
11588;SDS011;5850;51.360;12.362;2023-03-01T14:23:18;11.63;;;7.97;;
11588;SDS011;5850;51.360;12.362;2023-03-01T14:25:53;14.70;;;8.17;;
11588;SDS011;5850;51.360;12.362;2023-03-01T14:28:29;11.67;;;7.53;;
11588;SDS011;5850;51.360;12.362;2023-03-01T14:31:04;12.47;;;8.23;;
11588;SDS011;5850;51.360;12.362;2023-03-01T14:34:21;12.43;;;8.37;;
11588;SDS011;5850;51.360;12.362;2023-03-01T14:36:51;12.07;;;7.17;;
11588;SDS011;5850;51.360;12.362;2023-03-01T14:39:23;12.83;;;7.23;;
11588;SDS011;5850;51.360;12.362;2023-03-01T14:41:52;11.17;;;7.57;;
11588;SDS011;5850;51.360;12.362;2023-03-01T14:44:23;11.57;;;8.10;;
11588;SDS011;5850;51.360;12.362;2023-03-01T14:46:53;10.07;;;7.17;;
11588;SDS011;5850;51.360;12.362;2023-03-01T14:49:24;10.13;;;7.57;;
11588;SDS011;5850;51.360;12.362;2023-03-01T14:52:04;10.80;;;7.00;;
11588;SDS011;5850;51.360;12.362;2023-03-01T14:57:14;10.30;;;7.17;;
11588;SDS011;5850;51.360;12.362;2023-03-01T14:59:49;11.27;;;8.03;;
11588;SDS011;5850;51.360;12.362;2023-03-01T15:02:25;11.97;;;7.13;;
11588;SDS011;5850;51.360;12.362;2023-03-01T15:04:56;12.17;;;7.77;;
11588;SDS011;5850;51.360;12.362;2023-03-01T15:07:29;11.07;;;7.40;;
11588;SDS011;5850;51.360;12.362;2023-03-01T15:10:01;11.90;;;7.23;;
11588;SDS011;5850;51.360;12.362;2023-03-01T15:12:34;10.20;;;7.27;;
11588;SDS011;5850;51.360;12.362;2023-03-01T15:17:56;10.43;;;7.90;;
11588;SDS011;5850;51.360;12.362;2023-03-01T15:20:30;10.50;;;7.63;;
11588;SDS011;5850;51.360;12.362;2023-03-01T15:23:02;10.77;;;7.70;;
11588;SDS011;5850;51.360;12.362;2023-03-01T15:25:31;12.13;;;8.00;;
11588;SDS011;5850;51.360;12.362;2023-03-01T15:28:01;12.17;;;8.10;;
11588;SDS011;5850;51.360;12.362;2023-03-01T15:30:33;11.30;;;7.57;;
11588;SDS011;5850;51.360;12.362;2023-03-01T15:35:55;13.13;;;7.50;;
11588;SDS011;5850;51.360;12.362;2023-03-01T15:41:05;10.23;;;7.20;;
11588;SDS011;5850;51.360;12.362;2023-03-01T15:43:52;12.60;;;7.80;;
11588;SDS011;5850;51.360;12.362;2023-03-01T15:46:26;8.37;;;6.00;;
11588;SDS011;5850;51.360;12.362;2023-03-01T15:49:03;9.87;;;7.13;;
11588;SDS011;5850;51.360;12.362;2023-03-01T15:55:19;9.67;;;6.73;;
11588;SDS011;5850;51.360;12.362;2023-03-01T15:57:50;12.00;;;6.50;;
11588;SDS011;5850;51.360;12.362;2023-03-01T16:00:33;13.10;;;6.87;;
11588;SDS011;5850;51.360;12.362;2023-03-01T16:03:01;9.03;;;6.47;;
11588;SDS011;5850;51.360;12.362;2023-03-01T16:05:32;9.63;;;6.83;;
11588;SDS011;5850;51.360;12.362;2023-03-01T16:08:02;10.50;;;7.67;;
11588;SDS011;5850;51.360;12.362;2023-03-01T16:10:32;21.57;;;10.50;;
11588;SDS011;5850;51.360;12.362;2023-03-01T16:13:01;23.33;;;13.03;;
11588;SDS011;5850;51.360;12.362;2023-03-01T16:15:30;28.57;;;14.97;;
11588;SDS011;5850;51.360;12.362;2023-03-01T16:18:02;14.30;;;11.27;;
11588;SDS011;5850;51.360;12.362;2023-03-01T16:20:31;14.87;;;8.83;;
11588;SDS011;5850;51.360;12.362;2023-03-01T16:23:01;18.93;;;11.73;;
11588;SDS011;5850;51.360;12.362;2023-03-01T16:25:32;11.50;;;7.53;;
11588;SDS011;5850;51.360;12.362;2023-03-01T16:28:02;9.77;;;7.40;;
11588;SDS011;5850;51.360;12.362;2023-03-01T16:30:35;12.37;;;7.90;;
11588;SDS011;5850;51.360;12.362;2023-03-01T16:33:05;8.87;;;6.90;;
11588;SDS011;5850;51.360;12.362;2023-03-01T16:35:55;13.47;;;7.33;;
11588;SDS011;5850;51.360;12.362;2023-03-01T16:38:26;10.93;;;8.13;;
11588;SDS011;5850;51.360;12.362;2023-03-01T16:40:54;13.90;;;7.60;;
11588;SDS011;5850;51.360;12.362;2023-03-01T16:43:23;13.00;;;7.87;;
11588;SDS011;5850;51.360;12.362;2023-03-01T16:45:52;11.03;;;7.83;;
11588;SDS011;5850;51.360;12.362;2023-03-01T16:48:20;10.20;;;7.70;;
11588;SDS011;5850;51.360;12.362;2023-03-01T16:50:58;10.60;;;7.97;;
11588;SDS011;5850;51.360;12.362;2023-03-01T16:53:28;12.00;;;8.57;;
11588;SDS011;5850;51.360;12.362;2023-03-01T16:55:57;12.33;;;8.10;;
11588;SDS011;5850;51.360;12.362;2023-03-01T16:58:25;16.37;;;8.70;;